Time;durP1;ratioP1;P1;durP2;ratioP2;P2;SDS_P1;SDS_P2;PMS_P1;PMS_P2;Temp;Humidity;BMP_temperature;BMP_pressure;BME280_temperature;BME280_humidity;BME280_pressure;Samples;Min_cycle;Max_cycle;Signal;HPM_P1;HPM_P2
2023/08/28 00:02:09;;;;;;;26.20;4.07;;;11.10;99.90;;;;;;4974217;28;20181;-65
2023/08/28 00:04:34;;;;;;;31.43;4.10;;;11.20;99.90;;;;;;4972919;28;20210;-65
2023/08/28 00:07:00;;;;;;;7.13;3.50;;;11.10;99.90;;;;;;4988415;28;20182;-65
2023/08/28 00:09:25;;;;;;;7.00;3.10;;;11.10;99.90;;;;;;4974017;28;20265;-65
2023/08/28 00:11:52;;;;;;;6.47;2.60;;;11.20;99.90;;;;;;4973995;28;20312;-65
2023/08/28 00:14:18;;;;;;;5.93;3.10;;;11.20;99.90;;;;;;4973828;28;20217;-65
2023/08/28 00:16:43;;;;;;;7.73;2.90;;;11.20;99.90;;;;;;4971992;28;20192;-66
2023/08/28 00:19:09;;;;;;;6.57;3.17;;;11.20;99.90;;;;;;4973716;28;20220;-65
2023/08/28 00:21:35;;;;;;;23.63;3.80;;;11.20;99.90;;;;;;4972748;28;20277;-65
2023/08/28 00:24:00;;;;;;;9.57;3.03;;;11.20;99.90;;;;;;4972149;28;20206;-65
2023/08/28 00:26:26;;;;;;;5.57;2.73;;;11.10;99.90;;;;;;4973812;28;20233;-65
2023/08/28 00:28:51;;;;;;;6.87;2.43;;;11.10;99.90;;;;;;4973254;28;20182;-65
2023/08/28 00:31:17;;;;;;;4.20;2.63;;;11.10;99.90;;;;;;4973706;28;20647;-65
2023/08/28 00:33:42;;;;;;;4.00;2.60;;;11.10;99.90;;;;;;4988403;28;20308;-65
2023/08/28 00:36:08;;;;;;;4.33;2.70;;;11.00;99.90;;;;;;4973596;28;20272;-65
2023/08/28 00:38:33;;;;;;;3.27;2.37;;;11.00;99.90;;;;;;4972739;28;20182;-65
2023/08/28 00:40:59;;;;;;;4.83;3.20;;;11.10;99.90;;;;;;4973463;28;20178;-65
2023/08/28 00:43:24;;;;;;;15.83;3.20;;;11.10;99.90;;;;;;4973451;28;20201;-65
2023/08/28 00:45:50;;;;;;;4.93;3.13;;;11.10;99.90;;;;;;4973381;28;20181;-65
2023/08/28 00:48:16;;;;;;;23.77;2.53;;;11.10;99.90;;;;;;4987671;28;20190;-66
2023/08/28 00:50:41;;;;;;;3.90;2.70;;;11.10;99.90;;;;;;4973285;28;20190;-65
2023/08/28 00:53:07;;;;;;;6.87;2.90;;;11.00;99.90;;;;;;4988176;28;20694;-65
2023/08/28 00:55:34;;;;;;;23.77;2.83;;;11.00;99.90;;;;;;4973177;28;20198;-65
2023/08/28 00:58:01;;;;;;;9.07;3.13;;;11.00;99.90;;;;;;4972609;28;20213;-65
2023/08/28 01:00:28;;;;;;;6.30;2.73;;;10.90;99.90;;;;;;4987937;28;20170;-65
2023/08/28 01:02:53;;;;;;;33.73;4.77;;;10.90;99.90;;;;;;4972203;28;20202;-65
2023/08/28 01:05:20;;;;;;;7.33;3.20;;;10.80;99.90;;;;;;4987985;28;20244;-66
2023/08/28 01:08:13;;;;;;;10.43;3.17;;;10.70;99.90;;;;;;4986918;28;20178;-65
2023/08/28 01:10:41;;;;;;;8.83;2.70;;;10.60;99.90;;;;;;4944890;28;20190;-66
2023/08/28 01:13:18;;;;;;;11.53;3.30;;;10.60;99.90;;;;;;4987630;28;20725;-66
2023/08/28 01:15:44;;;;;;;15.13;2.90;;;10.60;99.90;;;;;;4972843;28;20198;-65
2023/08/28 01:18:09;;;;;;;9.07;2.90;;;10.60;99.90;;;;;;4987056;28;20260;-65
2023/08/28 01:20:35;;;;;;;3.70;2.60;;;10.60;99.90;;;;;;4987668;28;20206;-65
2023/08/28 01:23:16;;;;;;;10.93;3.03;;;10.60;99.90;;;;;;4987431;28;20201;-65
2023/08/28 01:25:41;;;;;;;8.57;3.87;;;10.60;99.90;;;;;;4972644;28;20173;-65
2023/08/28 01:28:07;;;;;;;19.13;3.67;;;10.60;99.90;;;;;;4986904;28;20178;-65
2023/08/28 01:30:32;;;;;;;6.10;2.83;;;10.60;99.90;;;;;;4987781;28;20185;-65
2023/08/28 01:32:58;;;;;;;9.83;3.03;;;10.60;99.90;;;;;;4972409;28;20629;-65
2023/08/28 01:35:28;;;;;;;7.73;3.10;;;10.60;99.90;;;;;;4972567;28;20550;-65
2023/08/28 01:37:54;;;;;;;6.60;3.20;;;10.60;99.90;;;;;;4986705;28;20166;-65
2023/08/28 01:40:21;;;;;;;7.97;3.23;;;10.60;99.90;;;;;;4972397;28;20253;-65
2023/08/28 01:42:47;;;;;;;5.97;2.57;;;10.60;99.90;;;;;;4987157;28;20194;-66
2023/08/28 01:45:14;;;;;;;5.10;2.80;;;10.70;99.90;;;;;;4987401;28;20269;-65
2023/08/28 01:47:39;;;;;;;5.40;3.30;;;10.70;99.90;;;;;;4986906;28;20576;-65
2023/08/28 01:50:05;;;;;;;9.03;3.10;;;10.70;99.90;;;;;;4987263;28;20170;-65
2023/08/28 01:52:30;;;;;;;7.17;3.00;;;10.60;99.90;;;;;;4972003;28;20251;-65
2023/08/28 01:54:56;;;;;;;10.17;2.83;;;10.60;99.90;;;;;;4970877;28;20552;-65
2023/08/28 01:57:22;;;;;;;7.40;3.07;;;10.60;99.90;;;;;;4971609;28;20624;-65
2023/08/28 01:59:47;;;;;;;19.37;3.43;;;10.60;99.90;;;;;;4972164;28;20169;-65
2023/08/28 02:02:13;;;;;;;6.30;2.80;;;10.50;99.90;;;;;;4972153;28;20328;-65
2023/08/28 02:04:38;;;;;;;23.17;3.67;;;10.50;99.90;;;;;;4972081;28;20633;-65
2023/08/28 02:07:04;;;;;;;4.20;2.47;;;10.40;99.90;;;;;;4971426;28;20703;-65
2023/08/28 02:09:29;;;;;;;23.73;3.50;;;10.40;99.90;;;;;;4986879;28;20297;-65
2023/08/28 02:11:55;;;;;;;21.23;3.07;;;10.30;99.90;;;;;;4972236;28;20288;-66
2023/08/28 02:14:20;;;;;;;15.63;3.07;;;10.30;99.90;;;;;;4971897;28;20209;-65
2023/08/28 02:16:46;;;;;;;3.10;2.40;;;10.30;99.90;;;;;;4971766;28;20537;-65
2023/08/28 02:19:12;;;;;;;27.67;3.60;;;10.30;99.90;;;;;;4971685;28;20170;-66
2023/08/28 02:21:37;;;;;;;7.10;3.17;;;10.30;99.90;;;;;;4972006;28;20224;-65
2023/08/28 02:24:03;;;;;;;41.43;3.03;;;10.30;99.90;;;;;;4971758;28;20194;-65
2023/08/28 02:26:29;;;;;;;22.27;3.03;;;10.20;99.90;;;;;;4971876;28;20252;-65
2023/08/28 02:28:54;;;;;;;17.50;2.63;;;10.20;99.90;;;;;;4973717;28;20783;-65
2023/08/28 02:31:20;;;;;;;16.83;2.67;;;10.20;99.90;;;;;;4990862;28;20172;-65
2023/08/28 02:33:45;;;;;;;7.80;2.40;;;10.10;99.90;;;;;;4975700;28;20221;-65
2023/08/28 02:36:11;;;;;;;15.17;2.53;;;10.10;99.90;;;;;;4975764;28;20546;-65
2023/08/28 02:38:36;;;;;;;3.67;2.50;;;10.10;99.90;;;;;;4974934;28;20226;-65
2023/08/28 02:41:06;;;;;;;25.87;3.87;;;10.00;99.90;;;;;;4975701;28;20605;-65
2023/08/28 02:43:32;;;;;;;9.50;3.33;;;10.00;99.90;;;;;;4975518;28;20201;-65
2023/08/28 02:45:57;;;;;;;42.07;3.73;;;10.00;99.90;;;;;;4975716;28;20229;-65
2023/08/28 02:48:23;;;;;;;17.23;3.50;;;9.90;99.90;;;;;;4974837;28;20185;-65
2023/08/28 02:50:49;;;;;;;3.93;2.60;;;9.90;99.90;;;;;;4975447;28;20178;-65
2023/08/28 02:53:15;;;;;;;3.77;2.60;;;10.00;99.90;;;;;;4975449;28;20224;-65
2023/08/28 02:55:41;;;;;;;6.50;3.17;;;10.00;99.90;;;;;;4975392;28;20181;-65
2023/08/28 02:58:06;;;;;;;7.50;3.43;;;10.10;99.90;;;;;;4974708;28;20240;-65
2023/08/28 03:00:33;;;;;;;4.77;3.27;;;10.10;99.90;;;;;;4975355;28;20170;-65
2023/08/28 03:03:00;;;;;;;5.20;3.20;;;10.20;99.90;;;;;;4975221;28;20194;-65
2023/08/28 03:05:26;;;;;;;24.37;3.73;;;10.20;99.90;;;;;;4975498;28;20182;-65
2023/08/28 03:07:52;;;;;;;4.73;3.10;;;10.20;99.90;;;;;;4974577;28;20272;-65
2023/08/28 03:10:17;;;;;;;5.13;3.03;;;10.20;99.90;;;;;;4975091;28;20313;-65
2023/08/28 03:12:43;;;;;;;5.23;3.67;;;10.20;99.90;;;;;;4974827;28;20403;-65
2023/08/28 03:15:09;;;;;;;5.97;3.50;;;10.30;99.90;;;;;;4975097;28;20249;-65
2023/08/28 03:17:34;;;;;;;6.10;3.63;;;10.30;99.90;;;;;;4974354;28;20181;-65
2023/08/28 03:20:00;;;;;;;5.77;3.90;;;10.30;99.90;;;;;;4974911;28;20173;-65
2023/08/28 03:22:25;;;;;;;13.60;3.70;;;10.20;99.90;;;;;;4974730;28;20177;-65
2023/08/28 03:24:52;;;;;;;23.17;3.20;;;10.20;99.90;;;;;;4974865;28;20240;-65
2023/08/28 03:27:21;;;;;;;5.17;2.83;;;10.10;99.90;;;;;;4974197;28;20307;-65
2023/08/28 03:29:47;;;;;;;29.53;3.60;;;10.00;99.90;;;;;;4974869;28;20182;-65
2023/08/28 03:32:13;;;;;;;5.93;3.30;;;10.00;99.90;;;;;;4974769;28;20213;-65
2023/08/28 03:34:38;;;;;;;9.50;3.60;;;10.00;99.90;;;;;;4974769;28;20229;-65
2023/08/28 03:37:04;;;;;;;4.70;3.17;;;10.00;99.90;;;;;;4974072;28;20181;-66
2023/08/28 03:39:29;;;;;;;6.30;3.23;;;10.10;99.90;;;;;;4974639;28;20188;-66
2023/08/28 03:41:55;;;;;;;18.77;3.90;;;10.20;99.90;;;;;;4974790;28;20269;-65
2023/08/28 03:44:20;;;;;;;19.23;3.43;;;10.10;99.90;;;;;;4974596;28;20194;-66
2023/08/28 03:46:46;;;;;;;17.87;3.67;;;10.10;99.90;;;;;;4989013;28;20185;-66
2023/08/28 03:49:11;;;;;;;25.80;4.10;;;10.10;99.90;;;;;;4974372;28;20237;-66
2023/08/28 03:51:37;;;;;;;7.87;3.40;;;10.10;99.90;;;;;;4974375;28;20193;-66
2023/08/28 03:54:03;;;;;;;53.43;4.37;;;10.10;99.90;;;;;;4974225;28;20217;-66
2023/08/28 03:56:29;;;;;;;9.60;4.53;;;10.10;99.90;;;;;;4973017;28;20190;-66
2023/08/28 03:58:55;;;;;;;4.27;2.83;;;10.10;99.90;;;;;;4973800;28;20192;-66
2023/08/28 04:01:21;;;;;;;11.37;3.47;;;10.10;99.90;;;;;;4974315;28;20198;-66
2023/08/28 04:03:46;;;;;;;5.63;2.80;;;10.10;99.90;;;;;;4989086;28;20720;-65
2023/08/28 04:06:12;;;;;;;5.23;2.33;;;10.10;99.90;;;;;;4974123;28;20268;-66
2023/08/28 04:08:37;;;;;;;22.50;3.77;;;10.10;99.90;;;;;;4973360;28;20205;-66
2023/08/28 04:11:03;;;;;;;15.07;2.83;;;10.00;99.90;;;;;;4974110;28;20208;-66
2023/08/28 04:13:29;;;;;;;22.00;3.90;;;9.90;99.90;;;;;;4988758;28;20244;-66
2023/08/28 04:15:54;;;;;;;13.10;3.30;;;9.90;99.90;;;;;;4972475;28;20643;-66
2023/08/28 04:18:20;;;;;;;15.33;3.80;;;9.90;99.90;;;;;;4973370;28;20536;-65
2023/08/28 04:20:45;;;;;;;30.43;3.40;;;9.80;99.90;;;;;;4973727;28;20612;-65
2023/08/28 04:23:13;;;;;;;9.70;3.00;;;9.70;99.90;;;;;;4972983;28;20198;-65
2023/08/28 04:25:38;;;;;;;15.43;3.47;;;9.50;99.90;;;;;;4973731;28;20714;-65
2023/08/28 04:28:04;;;;;;;15.10;5.23;;;9.50;99.90;;;;;;4973090;28;20170;-65
2023/08/28 04:30:29;;;;;;;7.93;3.53;;;9.50;99.90;;;;;;4973777;28;20549;-65
2023/08/28 04:32:55;;;;;;;7.37;3.40;;;9.50;99.90;;;;;;4973558;28;20218;-65
2023/08/28 04:35:21;;;;;;;14.00;3.70;;;9.50;99.90;;;;;;4973688;28;20182;-66
2023/08/28 04:37:46;;;;;;;7.13;3.60;;;9.50;99.90;;;;;;4972769;28;20204;-65
2023/08/28 04:40:12;;;;;;;11.47;4.20;;;9.50;99.90;;;;;;4972536;28;20268;-65
2023/08/28 04:42:37;;;;;;;7.67;3.43;;;9.50;99.90;;;;;;4973406;28;20209;-65
2023/08/28 04:45:03;;;;;;;13.43;3.87;;;9.50;99.90;;;;;;4973466;28;20174;-65
2023/08/28 04:47:29;;;;;;;13.33;4.00;;;9.60;99.90;;;;;;4972667;28;20213;-65
2023/08/28 04:49:55;;;;;;;7.33;3.70;;;9.50;99.90;;;;;;4987295;28;20180;-66
2023/08/28 04:52:22;;;;;;;8.77;3.27;;;9.60;99.90;;;;;;4972071;28;20210;-65
2023/08/28 04:54:47;;;;;;;6.70;3.27;;;9.60;99.90;;;;;;4972771;28;20357;-65
2023/08/28 04:57:13;;;;;;;7.77;3.50;;;9.60;99.90;;;;;;4971986;28;20651;-65
2023/08/28 04:59:39;;;;;;;5.10;3.27;;;9.60;99.90;;;;;;4972721;28;20193;-65
2023/08/28 05:02:04;;;;;;;13.80;3.43;;;9.60;99.90;;;;;;4972629;28;20248;-65
2023/08/28 05:04:30;;;;;;;9.63;3.77;;;9.60;99.90;;;;;;4971381;28;20288;-65
2023/08/28 05:06:56;;;;;;;6.80;4.13;;;9.60;99.90;;;;;;4972011;28;20394;-66
2023/08/28 05:09:21;;;;;;;14.00;4.20;;;9.60;99.90;;;;;;4972247;28;20200;-65
2023/08/28 05:11:47;;;;;;;13.67;4.50;;;9.60;99.90;;;;;;4972181;28;20592;-65
2023/08/28 05:14:12;;;;;;;8.17;3.77;;;9.60;99.90;;;;;;4972287;28;20205;-65
2023/08/28 05:16:38;;;;;;;14.50;4.10;;;9.60;99.90;;;;;;4972213;28;20170;-65
2023/08/28 05:19:03;;;;;;;7.93;4.13;;;9.60;99.90;;;;;;4971618;28;20185;-65
2023/08/28 05:21:29;;;;;;;10.23;3.67;;;9.60;99.90;;;;;;4972227;28;20182;-65
2023/08/28 05:23:54;;;;;;;7.30;4.20;;;9.60;99.90;;;;;;4972264;28;20197;-65
2023/08/28 05:26:20;;;;;;;9.50;3.70;;;9.60;99.90;;;;;;4972153;28;20264;-65
2023/08/28 05:28:45;;;;;;;6.93;3.90;;;9.60;99.90;;;;;;4971495;28;20726;-65
2023/08/28 05:31:11;;;;;;;5.50;3.60;;;9.70;99.90;;;;;;4972039;28;20274;-65
2023/08/28 05:33:36;;;;;;;10.57;3.70;;;9.70;99.90;;;;;;4970940;28;20300;-65
2023/08/28 05:36:02;;;;;;;6.70;3.77;;;9.80;99.90;;;;;;4972144;28;20220;-66
2023/08/28 05:38:28;;;;;;;5.20;3.30;;;9.90;99.90;;;;;;4971195;28;20162;-65
2023/08/28 05:40:54;;;;;;;4.60;3.13;;;9.90;99.90;;;;;;4971947;28;20702;-66
2023/08/28 05:43:19;;;;;;;7.50;3.93;;;10.00;99.90;;;;;;4971883;28;20201;-66
2023/08/28 05:45:46;;;;;;;5.30;3.57;;;10.10;99.90;;;;;;4971780;28;20184;-65
2023/08/28 05:48:11;;;;;;;5.83;3.90;;;10.20;99.90;;;;;;4971106;28;20170;-66
2023/08/28 05:50:39;;;;;;;6.00;3.97;;;10.10;99.90;;;;;;4971864;28;20549;-66
2023/08/28 05:53:06;;;;;;;10.00;3.93;;;10.00;99.90;;;;;;4971502;28;20206;-66
2023/08/28 05:55:32;;;;;;;7.13;3.57;;;10.10;99.90;;;;;;4986477;28;20643;-65
2023/08/28 05:57:57;;;;;;;7.50;3.43;;;10.20;99.90;;;;;;4971180;28;20177;-66
2023/08/28 06:00:23;;;;;;;5.07;3.50;;;10.30;99.90;;;;;;4971737;28;20683;-66
2023/08/28 06:02:49;;;;;;;5.50;3.20;;;10.40;99.90;;;;;;4970319;28;20706;-65
2023/08/28 06:05:14;;;;;;;4.03;2.70;;;10.50;99.90;;;;;;4971906;28;20217;-66
2023/08/28 06:07:40;;;;;;;5.73;2.57;;;10.50;99.90;;;;;;4970964;28;20563;-65
2023/08/28 06:10:06;;;;;;;3.93;2.73;;;10.50;99.90;;;;;;4971433;28;20698;-66
2023/08/28 06:12:31;;;;;;;5.67;2.23;;;10.50;99.90;;;;;;4969566;28;20213;-66
2023/08/28 06:14:57;;;;;;;3.43;2.40;;;10.50;99.90;;;;;;4971459;28;20185;-66
2023/08/28 06:17:23;;;;;;;6.47;2.50;;;10.60;99.90;;;;;;4970727;28;20188;-66
2023/08/28 06:19:49;;;;;;;14.87;3.97;;;10.70;99.90;;;;;;4971242;28;20197;-66
2023/08/28 06:22:15;;;;;;;4.03;2.00;;;10.60;99.90;;;;;;4971396;28;20178;-66
2023/08/28 06:24:40;;;;;;;8.17;2.37;;;10.70;99.90;;;;;;4971126;28;20200;-66
2023/08/28 06:27:06;;;;;;;5.30;2.80;;;10.70;99.90;;;;;;4969215;28;20181;-66
2023/08/28 06:29:31;;;;;;;6.83;3.13;;;10.80;99.90;;;;;;4971226;28;20190;-65
2023/08/28 06:31:57;;;;;;;5.43;3.70;;;10.90;99.90;;;;;;4971105;28;20182;-66
2023/08/28 06:34:23;;;;;;;8.43;4.17;;;11.00;99.90;;;;;;4971058;28;20205;-65
2023/08/28 06:36:49;;;;;;;5.40;3.50;;;11.00;99.90;;;;;;4985467;28;20178;-66
2023/08/28 06:39:15;;;;;;;5.67;3.80;;;11.10;99.90;;;;;;4970995;28;20201;-66
2023/08/28 06:41:40;;;;;;;6.13;4.07;;;11.30;99.90;;;;;;4986045;28;20187;-66
2023/08/28 06:44:06;;;;;;;9.60;4.27;;;11.40;99.90;;;;;;4970939;28;20730;-67
2023/08/28 06:46:31;;;;;;;6.77;4.70;;;11.60;99.90;;;;;;4969989;28;20197;-66
2023/08/28 06:48:57;;;;;;;8.53;5.27;;;11.80;99.90;;;;;;4968985;28;20191;-66
2023/08/28 06:51:23;;;;;;;8.50;5.17;;;12.00;99.90;;;;;;4971330;28;20181;-66
2023/08/28 06:53:49;;;;;;;7.73;4.83;;;12.00;99.90;;;;;;4970691;28;20236;-66
2023/08/28 06:56:15;;;;;;;7.40;4.43;;;12.00;99.90;;;;;;4971309;28;20182;-66
2023/08/28 06:58:40;;;;;;;7.47;4.80;;;12.20;99.90;;;;;;4971565;28;20193;-66
2023/08/28 07:01:06;;;;;;;7.70;4.60;;;12.50;99.90;;;;;;4971038;28;20207;-67
2023/08/28 07:03:31;;;;;;;7.40;4.53;;;12.80;99.90;;;;;;4969522;28;20667;-66
2023/08/28 07:05:57;;;;;;;8.40;4.60;;;13.10;99.90;;;;;;4971059;28;20182;-67
2023/08/28 07:08:22;;;;;;;7.43;3.83;;;13.40;99.90;;;;;;4970115;28;20190;-66
2023/08/28 07:10:48;;;;;;;6.07;3.90;;;13.60;99.90;;;;;;4970918;28;20188;-67
2023/08/28 07:13:13;;;;;;;6.03;3.80;;;13.70;99.90;;;;;;4970664;28;20218;-67
2023/08/28 07:15:42;;;;;;;6.43;4.00;;;13.80;99.90;;;;;;4974164;28;20177;-67
2023/08/28 07:18:07;;;;;;;6.10;3.67;;;14.00;99.90;;;;;;4973912;28;20182;-67
2023/08/28 07:20:34;;;;;;;5.87;3.93;;;14.30;99.90;;;;;;4972893;28;20174;-67
2023/08/28 07:22:59;;;;;;;9.00;4.57;;;14.70;99.90;;;;;;4974130;28;20206;-67
2023/08/28 07:25:25;;;;;;;8.77;3.60;;;15.10;99.90;;;;;;4974180;28;20178;-67
2023/08/28 07:27:51;;;;;;;6.90;4.10;;;15.80;99.90;;;;;;4972353;28;20182;-67
2023/08/28 07:30:16;;;;;;;13.93;6.47;;;16.40;99.90;;;;;;4972852;28;20241;-67
2023/08/28 07:32:42;;;;;;;5.43;3.70;;;16.70;99.90;;;;;;4973882;28;20193;-67
2023/08/28 07:35:08;;;;;;;4.77;3.03;;;16.70;99.90;;;;;;4972773;28;20638;-67
2023/08/28 07:37:34;;;;;;;4.73;3.33;;;16.80;99.90;;;;;;4972327;28;20174;-67
2023/08/28 07:39:59;;;;;;;4.20;3.20;;;16.80;99.90;;;;;;4972655;28;20182;-67
2023/08/28 07:42:25;;;;;;;4.47;3.27;;;16.80;99.90;;;;;;4973682;28;20189;-67
2023/08/28 07:44:50;;;;;;;8.10;2.83;;;16.70;99.90;;;;;;4972136;28;20201;-67
2023/08/28 07:47:16;;;;;;;6.50;2.80;;;16.70;99.90;;;;;;4973386;28;20174;-67
2023/08/28 07:49:42;;;;;;;5.60;2.63;;;16.60;99.90;;;;;;4973763;28;20185;-68
2023/08/28 07:52:08;;;;;;;5.90;3.17;;;16.70;99.90;;;;;;4972855;28;20342;-67
2023/08/28 07:54:33;;;;;;;5.07;3.20;;;16.70;99.90;;;;;;4974141;28;20644;-68
2023/08/28 07:56:59;;;;;;;6.77;3.60;;;16.70;99.90;;;;;;4973587;28;20189;-67
2023/08/28 07:59:24;;;;;;;4.63;2.93;;;16.60;99.90;;;;;;4973566;28;20182;-68
2023/08/28 08:01:50;;;;;;;5.17;3.20;;;16.50;99.90;;;;;;4973523;28;20222;-67
2023/08/28 08:04:15;;;;;;;6.60;3.67;;;16.60;99.90;;;;;;4973497;28;20204;-67
2023/08/28 08:06:41;;;;;;;6.13;3.10;;;16.50;99.90;;;;;;4973453;28;20185;-67
2023/08/28 08:09:06;;;;;;;5.77;3.20;;;16.40;99.90;;;;;;4973197;28;20217;-67
2023/08/28 08:11:32;;;;;;;5.20;3.10;;;16.30;99.90;;;;;;4973441;28;20185;-67
2023/08/28 08:13:58;;;;;;;5.20;2.87;;;16.30;99.90;;;;;;4973084;28;20226;-67
2023/08/28 08:16:24;;;;;;;5.00;3.30;;;16.30;99.90;;;;;;4973318;28;20194;-68
2023/08/28 08:18:49;;;;;;;8.00;3.13;;;16.30;99.90;;;;;;4973098;28;20186;-68
2023/08/28 08:21:15;;;;;;;9.10;3.57;;;16.30;99.90;;;;;;4973171;28;20276;-68
2023/08/28 08:23:41;;;;;;;6.83;3.07;;;16.30;99.90;;;;;;4972975;28;20206;-68
2023/08/28 08:26:07;;;;;;;6.30;3.43;;;16.30;99.90;;;;;;4972355;28;20218;-68
2023/08/28 08:28:32;;;;;;;5.87;3.77;;;16.40;99.90;;;;;;4971092;28;20188;-68
2023/08/28 08:30:58;;;;;;;6.00;3.60;;;16.40;99.90;;;;;;4971866;28;20186;-68
2023/08/28 08:33:23;;;;;;;5.07;3.40;;;16.60;99.90;;;;;;4972788;28;20214;-68
2023/08/28 08:35:49;;;;;;;5.80;3.60;;;16.50;99.90;;;;;;4973168;28;20198;-67
2023/08/28 08:38:15;;;;;;;5.73;3.20;;;16.50;99.90;;;;;;4972196;28;20244;-67
2023/08/28 08:40:41;;;;;;;3.87;2.93;;;16.50;99.90;;;;;;4973026;28;20178;-67
2023/08/28 08:43:06;;;;;;;7.20;3.30;;;16.70;99.90;;;;;;4971656;28;20687;-67
2023/08/28 08:45:32;;;;;;;4.63;2.80;;;16.90;99.90;;;;;;4971306;28;20228;-67
2023/08/28 08:47:59;;;;;;;5.10;3.67;;;17.10;99.90;;;;;;4970967;28;20173;-67
2023/08/28 08:50:25;;;;;;;5.47;3.40;;;17.20;99.90;;;;;;4973223;28;20181;-66
2023/08/28 08:52:51;;;;;;;4.33;3.10;;;17.20;99.90;;;;;;4971044;28;20218;-66
2023/08/28 08:55:25;;;;;;;21.27;10.50;;;17.30;99.90;;;;;;4955008;28;20181;-66
2023/08/28 08:57:53;;;;;;;8.90;4.83;;;17.50;99.90;;;;;;4970600;28;20178;-67
2023/08/28 09:00:19;;;;;;;7.13;4.20;;;17.30;99.90;;;;;;4971250;28;20349;-66
2023/08/28 09:02:44;;;;;;;8.37;4.60;;;17.60;99.90;;;;;;4970937;28;20229;-66
2023/08/28 09:05:10;;;;;;;7.23;4.30;;;17.80;99.90;;;;;;4971391;28;20186;-66
2023/08/28 09:07:37;;;;;;;9.63;4.33;;;17.80;99.90;;;;;;4954557;28;20232;-66
2023/08/28 09:10:04;;;;;;;8.47;3.83;;;18.30;99.90;;;;;;4969302;28;20734;-66
2023/08/28 09:12:30;;;;;;;6.60;4.57;;;18.70;99.90;;;;;;4971779;28;20244;-66
2023/08/28 09:14:55;;;;;;;5.83;4.10;;;19.40;99.90;;;;;;4972353;28;20186;-67
2023/08/28 09:17:21;;;;;;;5.73;3.70;;;20.30;99.90;;;;;;4970603;28;20170;-66
2023/08/28 09:19:47;;;;;;;4.80;3.53;;;20.70;99.90;;;;;;4972326;28;20636;-66
2023/08/28 09:22:13;;;;;;;5.60;3.80;;;21.10;99.90;;;;;;4972529;28;20189;-66
2023/08/28 09:24:39;;;;;;;8.00;3.80;;;21.30;99.90;;;;;;4972589;28;20205;-66
2023/08/28 09:27:04;;;;;;;4.70;3.20;;;21.10;99.90;;;;;;4972261;28;20277;-66
2023/08/28 09:29:30;;;;;;;4.13;2.93;;;21.20;99.90;;;;;;4972645;28;20269;-66
2023/08/28 09:32:05;;;;;;;4.30;2.70;;;21.30;99.90;;;;;;4972483;28;20236;-66
2023/08/28 09:34:38;;;;;;;7.90;3.10;;;21.40;99.90;;;;;;4970436;28;20193;-66
2023/08/28 09:37:06;;;;;;;7.40;3.00;;;21.10;99.90;;;;;;4969775;28;20181;-66
2023/08/28 09:39:32;;;;;;;5.20;2.77;;;20.80;99.90;;;;;;4971511;28;20237;-66
2023/08/28 09:41:57;;;;;;;10.60;3.60;;;20.70;99.90;;;;;;4971573;28;20688;-66
2023/08/28 09:44:25;;;;;;;5.87;3.17;;;20.50;99.90;;;;;;4971340;28;20190;-66
2023/08/28 09:46:50;;;;;;;4.10;2.60;;;20.30;99.90;;;;;;4971091;28;20190;-67
2023/08/28 09:49:16;;;;;;;5.40;2.77;;;20.20;99.90;;;;;;4954218;28;20178;-67
2023/08/28 09:51:45;;;;;;;5.47;2.97;;;20.30;99.90;;;;;;4971437;28;20260;-67
2023/08/28 09:54:12;;;;;;;7.33;3.23;;;20.40;99.90;;;;;;4969846;28;20212;-66
2023/08/28 09:56:38;;;;;;;5.00;3.00;;;20.20;99.90;;;;;;4971304;28;20206;-66
2023/08/28 09:59:04;;;;;;;6.97;2.70;;;19.90;99.90;;;;;;4969461;28;20181;-67
2023/08/28 10:01:34;;;;;;;9.83;2.50;;;20.00;99.90;;;;;;4970021;28;20274;-66
2023/08/28 10:04:02;;;;;;;4.13;2.60;;;20.20;99.90;;;;;;4969940;28;20229;-66
2023/08/28 10:06:32;;;;;;;9.90;3.10;;;20.30;99.90;;;;;;4971389;28;20678;-66
2023/08/28 10:09:01;;;;;;;5.10;2.90;;;20.30;99.90;;;;;;4969222;28;20196;-67
2023/08/28 10:11:35;;;;;;;9.17;4.60;;;20.40;99.90;;;;;;4971278;28;20189;-67
2023/08/28 10:14:02;;;;;;;24.07;11.70;;;20.50;99.90;;;;;;4971051;28;20214;-66
2023/08/28 10:16:27;;;;;;;4.57;2.87;;;20.10;99.90;;;;;;4968735;28;20178;-66
2023/08/28 10:18:58;;;;;;;6.30;3.30;;;20.00;99.90;;;;;;4969822;28;20174;-66
2023/08/28 10:21:24;;;;;;;6.67;2.80;;;20.20;99.90;;;;;;4954351;28;20207;-66
2023/08/28 10:23:49;;;;;;;5.50;2.80;;;20.80;99.90;;;;;;4953583;28;20322;-67
2023/08/28 10:26:15;;;;;;;6.00;2.10;;;21.10;99.90;;;;;;4971108;28;20178;-67
2023/08/28 10:28:41;;;;;;;3.87;2.30;;;21.60;99.90;;;;;;4969223;28;20290;-66
2023/08/28 10:31:07;;;;;;;6.83;3.07;;;21.90;99.90;;;;;;4953715;28;20187;-66
2023/08/28 10:33:33;;;;;;;7.77;2.40;;;21.80;99.90;;;;;;4970937;28;20693;-67
2023/08/28 10:35:58;;;;;;;2.77;2.00;;;21.60;99.90;;;;;;4953870;28;20178;-67
2023/08/28 10:38:24;;;;;;;5.37;1.90;;;21.50;99.90;;;;;;4953198;28;20205;-67
2023/08/28 10:40:54;;;;;;;4.87;2.10;;;21.30;99.90;;;;;;4970789;28;20556;-67
2023/08/28 10:43:20;;;;;;;6.63;2.37;;;21.40;99.90;;;;;;4969728;28;20675;-67
2023/08/28 10:45:45;;;;;;;6.13;3.03;;;21.40;99.90;;;;;;4969708;28;20192;-68
2023/08/28 10:48:11;;;;;;;6.03;1.80;;;21.60;99.90;;;;;;4953269;28;20590;-67
2023/08/28 10:50:37;;;;;;;3.07;2.10;;;21.50;99.90;;;;;;4974463;28;20181;-69
2023/08/28 10:53:03;;;;;;;3.20;1.53;;;21.90;99.90;;;;;;4974550;28;20268;-67
2023/08/28 10:55:29;;;;;;;4.63;1.87;;;22.30;99.90;;;;;;4974410;28;20201;-66
2023/08/28 10:57:55;;;;;;;4.57;2.07;;;22.40;99.90;;;;;;4974218;28;20178;-67
2023/08/28 11:00:22;;;;;;;6.10;1.83;;;22.20;99.90;;;;;;4974636;28;20546;-66
2023/08/28 11:03:14;;;;;;;3.83;1.77;;;22.10;99.90;;;;;;4974375;28;20575;-66
2023/08/28 11:05:41;;;;;;;4.93;1.70;;;22.00;99.90;;;;;;4974383;28;20159;-67
2023/08/28 11:08:08;;;;;;;2.67;1.50;;;21.90;99.90;;;;;;4972810;28;20265;-67
2023/08/28 11:10:34;;;;;;;3.63;1.47;;;21.80;99.90;;;;;;4973066;28;20179;-66
2023/08/28 11:13:05;;;;;;;2.57;1.30;;;22.00;99.90;;;;;;4974032;28;20226;-66
2023/08/28 11:15:32;;;;;;;1.73;1.00;;;22.20;99.90;;;;;;4974203;28;20671;-67
2023/08/28 11:18:19;;;;;;;2.10;1.10;;;22.10;99.90;;;;;;4972110;28;20181;-68
2023/08/28 11:21:04;;;;;;;2.47;1.00;;;22.00;99.90;;;;;;4974117;28;20167;-67
2023/08/28 11:23:38;;;;;;;3.10;1.30;;;22.10;99.90;;;;;;4974238;28;20207;-66
2023/08/28 11:26:10;;;;;;;2.17;1.03;;;22.40;99.90;;;;;;4956953;28;20182;-67
2023/08/28 11:28:45;;;;;;;2.43;0.93;;;22.80;99.90;;;;;;4973366;28;20159;-67
2023/08/28 11:31:11;;;;;;;1.90;0.77;;;23.20;99.90;;;;;;4972831;28;20176;-67
2023/08/28 11:33:49;;;;;;;5.60;1.00;;;23.60;99.90;;;;;;4972630;28;20220;-67
2023/08/28 11:36:16;;;;;;;3.00;1.30;;;23.70;99.90;;;;;;4972800;28;20165;-67
2023/08/28 11:38:43;;;;;;;2.37;1.07;;;23.70;99.90;;;;;;4973131;28;20181;-67
2023/08/28 11:41:10;;;;;;;2.70;1.10;;;23.90;99.90;;;;;;4940691;28;20201;-66
2023/08/28 11:43:36;;;;;;;3.43;1.00;;;24.00;99.90;;;;;;4956520;28;20194;-67
2023/08/28 11:46:03;;;;;;;2.80;1.00;;;23.80;99.90;;;;;;4973724;28;20668;-67
2023/08/28 11:48:36;;;;;;;79.00;33.87;;;23.40;99.90;;;;;;4971787;28;20257;-66
2023/08/28 11:51:03;;;;;;;2.77;1.10;;;23.20;99.90;;;;;;4973809;28;20186;-66
2023/08/28 11:53:40;;;;;;;2.27;1.00;;;23.50;99.90;;;;;;4973257;28;20643;-66
2023/08/28 11:56:07;;;;;;;2.10;1.00;;;23.70;99.90;;;;;;4972361;28;20567;-66
2023/08/28 11:58:33;;;;;;;1.70;1.10;;;23.90;99.90;;;;;;4973054;28;20209;-66
2023/08/28 12:01:00;;;;;;;1.93;1.00;;;23.70;99.90;;;;;;4972629;28;20202;-66
2023/08/28 12:03:26;;;;;;;3.47;1.17;;;23.10;99.90;;;;;;4973137;28;20230;-66
2023/08/28 12:06:07;;;;;;;3.40;1.10;;;22.90;99.90;;;;;;4973214;28;20561;-66
2023/08/28 12:08:34;;;;;;;2.20;0.90;;;22.80;99.90;;;;;;4972278;28;20168;-66
2023/08/28 12:10:59;;;;;;;1.53;0.93;;;22.60;99.90;;;;;;4972038;28;20616;-66
2023/08/28 12:13:25;;;;;;;2.60;0.90;;;22.30;99.90;;;;;;4971753;28;20254;-66
2023/08/28 12:15:50;;;;;;;1.37;0.90;;;22.10;99.90;;;;;;4973237;28;20214;-66
2023/08/28 12:18:16;;;;;;;3.07;1.20;;;21.90;99.90;;;;;;4972465;28;20179;-66
2023/08/28 12:20:41;;;;;;;1.17;0.90;;;21.80;99.90;;;;;;4972921;28;20171;-67
2023/08/28 12:23:07;;;;;;;2.53;1.20;;;21.60;99.90;;;;;;4972761;28;20217;-66
2023/08/28 12:25:34;;;;;;;2.80;1.10;;;21.40;99.90;;;;;;4972978;28;20179;-66
2023/08/28 12:28:07;;;;;;;3.97;1.10;;;21.30;99.90;;;;;;4971890;28;20195;-66
2023/08/28 12:30:32;;;;;;;2.30;1.23;;;21.20;99.90;;;;;;4971822;28;20166;-66
2023/08/28 12:32:58;;;;;;;2.63;1.13;;;21.30;99.90;;;;;;4972589;28;20303;-66
2023/08/28 12:35:24;;;;;;;2.53;1.57;;;21.30;99.90;;;;;;4955450;28;20217;-66
2023/08/28 12:37:53;;;;;;;1.70;1.20;;;21.50;99.90;;;;;;4972184;28;20514;-66
2023/08/28 12:40:18;;;;;;;2.80;1.20;;;21.80;99.90;;;;;;4972388;28;20178;-66
2023/08/28 12:42:44;;;;;;;3.17;1.30;;;21.80;99.90;;;;;;4955099;28;20176;-66